Time,TemperatureF,DewpointF,PressureIn,WindDirection,WindDirectionDegrees,WindSpeedMPH,WindSpeedGustMPH,Humidity,HourlyPrecipIn,Conditions,Clouds,dailyrainin,SolarRadiationWatts/m^2,SoftwareType,DateUTC
2013-06-13 00:22:00,50.0,49.0,-100.00,SE,127,0.0,3.0,95,0.07,,,0.09,0.000000,,2013-06-13 07:22:00,
2013-06-13 00:33:00,50.0,49.0,-100.00,SE,127,0.0,3.0,95,0.07,,,0.09,0.000000,,2013-06-13 07:33:00,
2013-06-13 00:42:00,50.0,49.0,-100.00,SE,127,0.0,3.0,95,0.07,,,0.09,0.000000,,2013-06-13 07:42:00,
2013-06-13 00:52:00,50.0,49.0,-100.00,NNW,348,0.0,4.0,96,0.01,,,0.10,0.000000,,2013-06-13 07:52:00,
2013-06-13 01:11:00,50.0,49.0,-100.00,NNW,348,0.0,4.0,96,0.01,,,0.10,0.000000,,2013-06-13 08:11:00,
2013-06-13 01:22:00,50.0,49.0,-100.00,NNW,348,0.0,4.0,96,0.01,,,0.10,0.000000,,2013-06-13 08:22:00,
2013-06-13 01:32:00,50.0,49.0,-100.00,NNW,348,0.0,4.0,96,0.01,,,0.10,0.000000,,2013-06-13 08:32:00,
2013-06-13 01:42:00,50.0,49.0,-100.00,NNW,348,0.0,4.0,96,0.01,,,0.10,0.000000,,2013-06-13 08:42:00,
2013-06-13 01:52:00,50.0,49.0,-100.00,NE,46,0.0,1.0,97,0.02,,,0.12,0.000000,,2013-06-13 08:52:00,
2013-06-13 02:11:00,50.0,49.0,-100.00,NE,46,0.0,1.0,97,0.02,,,0.12,0.000000,,2013-06-13 09:11:00,
2013-06-13 02:22:00,50.0,49.0,-100.00,NE,46,0.0,1.0,97,0.02,,,0.12,0.000000,,2013-06-13 09:22:00,
2013-06-13 02:32:00,50.0,49.0,-100.00,NE,46,0.0,1.0,97,0.02,,,0.12,0.000000,,2013-06-13 09:32:00,
2013-06-13 02:42:00,50.0,49.0,-100.00,NE,46,0.0,1.0,97,0.02,,,0.12,0.000000,,2013-06-13 09:42:00,
2013-06-13 02:52:00,49.0,48.0,-100.00,SE,132,0.0,3.0,96,0.01,,,0.13,0.000000,,2013-06-13 09:52:00,
2013-06-13 03:11:00,49.0,48.0,-100.00,SE,132,0.0,3.0,96,0.01,,,0.13,0.000000,,2013-06-13 10:11:00,
2013-06-13 03:22:00,49.0,48.0,-100.00,SE,132,0.0,3.0,96,0.01,,,0.13,0.000000,,2013-06-13 10:22:00,
2013-06-13 03:33:00,49.0,48.0,-100.00,SE,132,0.0,3.0,96,0.01,,,0.13,0.000000,,2013-06-13 10:33:00,
2013-06-13 03:42:00,49.0,48.0,-100.00,SE,132,0.0,3.0,96,0.01,,,0.13,0.000000,,2013-06-13 10:42:00,
2013-06-13 03:52:00,48.0,47.0,-100.00,ENE,70,0.0,3.0,97,0.00,,,0.13,0.000000,,2013-06-13 10:52:00,
2013-06-13 04:11:00,48.0,47.0,-100.00,ENE,70,0.0,3.0,97,0.00,,,0.13,0.000000,,2013-06-13 11:11:00,
2013-06-13 04:23:00,48.0,47.0,-100.00,ENE,70,0.0,3.0,97,0.00,,,0.13,0.000000,,2013-06-13 11:23:00,
2013-06-13 04:32:00,48.0,47.0,-100.00,ENE,70,0.0,3.0,97,0.00,,,0.13,0.000000,,2013-06-13 11:32:00,
2013-06-13 04:42:00,48.0,47.0,-100.00,ENE,70,0.0,3.0,97,0.00,,,0.13,0.000000,,2013-06-13 11:42:00,
2013-06-13 04:52:00,48.0,47.0,-100.00,NNW,337,1.0,3.0,97,0.00,,,0.12,0.000000,,2013-06-13 11:52:00,
2013-06-13 05:11:00,48.0,47.0,-100.00,NNW,337,1.0,3.0,97,0.00,,,0.12,0.000000,,2013-06-13 12:11:00,
2013-06-13 05:22:00,48.0,47.0,-100.00,NNW,337,1.0,3.0,97,0.00,,,0.12,0.000000,,2013-06-13 12:22:00,
2013-06-13 05:34:00,48.0,47.0,-100.00,NNW,337,1.0,3.0,97,0.00,,,0.12,0.000000,,2013-06-13 12:34:00,
2013-06-13 05:42:00,48.0,47.0,-100.00,NNW,337,1.0,3.0,97,0.00,,,0.12,0.000000,,2013-06-13 12:42:00,
2013-06-13 05:52:00,48.0,47.0,-100.00,NNW,341,1.0,3.0,97,0.00,,,0.11,11.000000,,2013-06-13 12:52:00,
2013-06-13 06:21:00,48.0,47.0,-100.00,NNW,341,1.0,3.0,97,0.00,,,0.11,11.000000,,2013-06-13 13:21:00,
2013-06-13 06:32:00,48.0,47.0,-100.00,NNW,341,1.0,3.0,97,0.00,,,0.11,11.000000,,2013-06-13 13:32:00,
2013-06-13 06:43:00,48.0,47.0,-100.00,NNW,341,1.0,3.0,97,0.00,,,0.11,11.000000,,2013-06-13 13:43:00,
2013-06-13 06:52:00,49.0,48.0,-100.00,NNE,26,0.0,2.0,95,0.00,,,0.11,59.000000,,2013-06-13 13:52:00,
2013-06-13 07:22:00,49.0,48.0,-100.00,NNE,26,0.0,2.0,95,0.00,,,0.11,59.000000,,2013-06-13 14:22:00,
2013-06-13 07:33:00,49.0,48.0,-100.00,NNE,26,0.0,2.0,95,0.00,,,0.11,59.000000,,2013-06-13 14:33:00,
2013-06-13 07:43:00,49.0,48.0,-100.00,NNE,26,0.0,2.0,95,0.00,,,0.11,59.000000,,2013-06-13 14:43:00,
2013-06-13 07:52:00,51.0,48.0,-100.00,SW,216,0.0,1.0,89,0.00,,,0.11,94.000000,,2013-06-13 14:52:00,
2013-06-13 08:12:00,51.0,48.0,-100.00,SW,216,0.0,1.0,89,0.00,,,0.11,94.000000,,2013-06-13 15:12:00,
2013-06-13 08:21:00,51.0,48.0,-100.00,SW,216,0.0,1.0,89,0.00,,,0.11,94.000000,,2013-06-13 15:21:00,
2013-06-13 08:33:00,51.0,48.0,-100.00,SW,216,0.0,1.0,89,0.00,,,0.11,94.000000,,2013-06-13 15:33:00,
2013-06-13 08:43:00,51.0,48.0,-100.00,SW,216,0.0,1.0,89,0.00,,,0.11,94.000000,,2013-06-13 15:43:00,
2013-06-13 08:52:00,54.0,49.0,-100.00,SE,132,2.0,4.0,83,0.00,,,0.11,222.000000,,2013-06-13 15:52:00,
2013-06-13 09:11:00,54.0,49.0,-100.00,SE,132,2.0,4.0,83,0.00,,,0.11,222.000000,,2013-06-13 16:11:00,
2013-06-13 09:22:00,54.0,49.0,-100.00,SE,132,2.0,4.0,83,0.00,,,0.11,222.000000,,2013-06-13 16:22:00,
2013-06-13 09:33:00,54.0,49.0,-100.00,SE,132,2.0,4.0,83,0.00,,,0.11,222.000000,,2013-06-13 16:33:00,
2013-06-13 09:43:00,54.0,49.0,-100.00,SE,132,2.0,4.0,83,0.00,,,0.11,222.000000,,2013-06-13 16:43:00,
2013-06-13 09:52:00,58.0,45.0,-100.00,NNW,335,1.0,8.0,62,0.00,,,0.11,513.000000,,2013-06-13 16:52:00,
2013-06-13 10:24:00,58.0,45.0,-100.00,NNW,335,1.0,8.0,62,0.00,,,0.11,513.000000,,2013-06-13 17:24:00,
2013-06-13 10:32:00,58.0,45.0,-100.00,NNW,335,1.0,8.0,62,0.00,,,0.11,513.000000,,2013-06-13 17:32:00,
2013-06-13 10:43:00,58.0,45.0,-100.00,NNW,335,1.0,8.0,62,0.00,,,0.11,513.000000,,2013-06-13 17:43:00,
2013-06-13 10:52:00,58.0,42.0,-100.00,SSW,210,1.0,8.0,56,0.00,,,0.11,394.000000,,2013-06-13 17:52:00,
2013-06-13 11:22:00,58.0,42.0,-100.00,SSW,210,1.0,8.0,56,0.00,,,0.11,394.000000,,2013-06-13 18:22:00,
2013-06-13 11:33:00,58.0,42.0,-100.00,SSW,210,1.0,8.0,56,0.00,,,0.11,394.000000,,2013-06-13 18:33:00,
2013-06-13 11:43:00,58.0,42.0,-100.00,SSW,210,1.0,8.0,56,0.00,,,0.11,394.000000,,2013-06-13 18:43:00,
2013-06-13 11:52:00,62.0,40.0,-100.00,South,187,4.0,10.0,45,0.00,,,0.11,669.000000,,2013-06-13 18:52:00,
2013-06-13 12:22:00,62.0,40.0,-100.00,South,187,4.0,10.0,45,0.00,,,0.11,669.000000,,2013-06-13 19:22:00,
2013-06-13 12:32:00,62.0,40.0,-100.00,South,187,4.0,10.0,45,0.00,,,0.11,669.000000,,2013-06-13 19:32:00,
2013-06-13 12:43:00,62.0,40.0,-100.00,South,187,4.0,10.0,45,0.00,,,0.11,669.000000,,2013-06-13 19:43:00,
2013-06-13 12:52:00,61.0,39.0,-100.00,NE,47,2.0,13.0,44,0.00,,,0.11,590.000000,,2013-06-13 19:52:00,
2013-06-13 13:22:00,61.0,39.0,-100.00,NE,47,2.0,13.0,44,0.00,,,0.11,590.000000,,2013-06-13 20:22:00,
2013-06-13 13:32:00,61.0,39.0,-100.00,NE,47,2.0,13.0,44,0.00,,,0.11,590.000000,,2013-06-13 20:32:00,
2013-06-13 13:43:00,61.0,39.0,-100.00,NE,47,2.0,13.0,44,0.00,,,0.11,590.000000,,2013-06-13 20:43:00,
2013-06-13 13:52:00,62.0,38.0,-100.00,South,176,1.0,7.0,41,0.00,,,0.11,371.000000,,2013-06-13 20:52:00,
2013-06-13 14:11:00,62.0,38.0,-100.00,South,176,1.0,7.0,41,0.00,,,0.11,371.000000,,2013-06-13 21:11:00,
2013-06-13 14:22:00,62.0,38.0,-100.00,South,176,1.0,7.0,41,0.00,,,0.11,371.000000,,2013-06-13 21:22:00,
2013-06-13 14:34:00,62.0,38.0,-100.00,South,176,1.0,7.0,41,0.00,,,0.11,371.000000,,2013-06-13 21:34:00,
2013-06-13 14:43:00,62.0,38.0,-100.00,South,176,1.0,7.0,41,0.00,,,0.11,371.000000,,2013-06-13 21:43:00,
2013-06-13 14:52:00,62.0,37.0,-100.00,ESE,119,2.0,7.0,40,0.00,,,-99.99,310.000000,,2013-06-13 21:52:00,
2013-06-13 15:22:00,62.0,37.0,-100.00,ESE,119,2.0,7.0,40,0.00,,,-99.99,310.000000,,2013-06-13 22:22:00,
2013-06-13 15:32:00,62.0,37.0,-100.00,ESE,119,2.0,7.0,40,0.00,,,-99.99,310.000000,,2013-06-13 22:32:00,
2013-06-13 15:42:00,62.0,37.0,-100.00,ESE,119,2.0,7.0,40,0.00,,,-99.99,310.000000,,2013-06-13 22:42:00,
2013-06-13 15:52:00,61.0,37.0,-100.00,SE,127,2.0,7.0,41,0.00,,,-99.99,206.000000,,2013-06-13 22:52:00,
2013-06-13 16:22:00,61.0,37.0,-100.00,SE,127,2.0,7.0,41,0.00,,,-99.99,206.000000,,2013-06-13 23:22:00,
2013-06-13 16:32:00,61.0,37.0,-100.00,SE,127,2.0,7.0,41,0.00,,,-99.99,206.000000,,2013-06-13 23:32:00,
2013-06-13 16:43:00,61.0,37.0,-100.00,SE,127,2.0,7.0,41,0.00,,,-99.99,206.000000,,2013-06-13 23:43:00,
2013-06-13 16:52:00,61.0,40.0,-100.00,SSE,163,2.0,11.0,46,0.00,,,0.11,193.000000,,2013-06-13 23:52:00,
2013-06-13 17:22:00,61.0,40.0,-100.00,SSE,163,2.0,11.0,46,0.00,,,0.11,193.000000,,2013-06-14 00:22:00,
2013-06-13 17:33:00,61.0,40.0,-100.00,SSE,163,2.0,11.0,46,0.00,,,0.11,193.000000,,2013-06-14 00:33:00,
2013-06-13 17:43:00,61.0,40.0,-100.00,SSE,163,2.0,11.0,46,0.00,,,0.11,193.000000,,2013-06-14 00:43:00,
2013-06-13 17:52:00,62.0,39.0,-100.00,South,182,3.0,8.0,43,0.00,,,0.11,162.000000,,2013-06-14 00:52:00,
2013-06-13 18:11:00,62.0,39.0,-100.00,South,182,3.0,8.0,43,0.00,,,0.11,162.000000,,2013-06-14 01:11:00,
2013-06-13 18:22:00,62.0,39.0,-100.00,South,182,3.0,8.0,43,0.00,,,0.11,162.000000,,2013-06-14 01:22:00,
2013-06-13 18:32:00,62.0,39.0,-100.00,South,182,3.0,8.0,43,0.00,,,0.11,162.000000,,2013-06-14 01:32:00,
2013-06-13 18:43:00,62.0,39.0,-100.00,South,182,3.0,8.0,43,0.00,,,0.11,162.000000,,2013-06-14 01:43:00,
2013-06-13 18:52:00,57.0,40.0,-100.00,NW,307,1.0,11.0,52,0.00,,,0.11,49.000000,,2013-06-14 01:52:00,
2013-06-13 19:22:00,57.0,40.0,-100.00,NW,307,1.0,11.0,52,0.00,,,0.11,49.000000,,2013-06-14 02:22:00,
2013-06-13 19:32:00,57.0,40.0,-100.00,NW,307,1.0,11.0,52,0.00,,,0.11,49.000000,,2013-06-14 02:32:00,
2013-06-13 19:43:00,57.0,40.0,-100.00,NW,307,1.0,11.0,52,0.00,,,0.11,49.000000,,2013-06-14 02:43:00,
2013-06-13 19:52:00,53.0,43.0,-100.00,WNW,302,0.0,3.0,68,0.00,,,0.11,22.000000,,2013-06-14 02:52:00,
2013-06-13 20:22:00,53.0,43.0,-100.00,WNW,302,0.0,3.0,68,0.00,,,0.11,22.000000,,2013-06-14 03:22:00,
2013-06-13 20:34:00,53.0,43.0,-100.00,WNW,302,0.0,3.0,68,0.00,,,0.11,22.000000,,2013-06-14 03:34:00,
2013-06-13 20:43:00,53.0,43.0,-100.00,WNW,302,0.0,3.0,68,0.00,,,0.11,22.000000,,2013-06-14 03:43:00,
2013-06-13 20:52:00,49.0,45.0,-100.00,NNW,347,0.0,2.0,85,0.00,,,0.11,9.000000,,2013-06-14 03:52:00,
2013-06-13 21:12:00,49.0,45.0,-100.00,NNW,347,0.0,2.0,85,0.00,,,0.11,9.000000,,2013-06-14 04:12:00,
2013-06-13 21:22:00,49.0,45.0,-100.00,NNW,347,0.0,2.0,85,0.00,,,0.11,9.000000,,2013-06-14 04:22:00,
2013-06-13 21:33:00,49.0,45.0,-100.00,NNW,347,0.0,2.0,85,0.00,,,0.11,9.000000,,2013-06-14 04:33:00,
2013-06-13 21:43:00,49.0,45.0,-100.00,NNW,347,0.0,2.0,85,0.00,,,0.11,9.000000,,2013-06-14 04:43:00,
2013-06-13 21:52:00,45.0,42.0,-100.00,NNE,16,1.0,3.0,90,0.00,,,0.11,0.000000,,2013-06-14 04:52:00,
2013-06-13 22:22:00,45.0,42.0,-100.00,NNE,16,1.0,3.0,90,0.00,,,0.11,0.000000,,2013-06-14 05:22:00,
2013-06-13 22:33:00,45.0,42.0,-100.00,NNE,16,1.0,3.0,90,0.00,,,0.11,0.000000,,2013-06-14 05:33:00,
2013-06-13 22:43:00,45.0,42.0,-100.00,NNE,16,1.0,3.0,90,0.00,,,0.11,0.000000,,2013-06-14 05:43:00,
2013-06-13 22:52:00,43.0,41.0,-100.00,NE,44,0.0,2.0,93,0.00,,,0.11,0.000000,,2013-06-14 05:52:00,
2013-06-13 23:12:00,43.0,41.0,-100.00,NE,44,0.0,2.0,93,0.00,,,0.11,0.000000,,2013-06-14 06:12:00,
2013-06-13 23:22:00,43.0,41.0,-100.00,NE,44,0.0,2.0,93,0.00,,,0.11,0.000000,,2013-06-14 06:22:00,
2013-06-13 23:33:00,43.0,41.0,-100.00,NE,44,0.0,2.0,93,0.00,,,0.11,0.000000,,2013-06-14 06:33:00,
2013-06-13 23:43:00,43.0,41.0,-100.00,NE,44,0.0,2.0,93,0.00,,,0.11,0.000000,,2013-06-14 06:43:00,
2013-06-13 23:52:00,42.0,40.0,-100.00,East,92,0.0,2.0,93,0.00,,,0.04,0.000000,,2013-06-14 06:52:00,